createdAt,value
2019-03-21T00:01:17.290Z,15.73
2019-03-21T00:03:47.690Z,13.87
2019-03-21T00:06:17.026Z,11.77
2019-03-21T00:08:46.445Z,8.30
2019-03-21T00:11:51.636Z,11.70
2019-03-21T00:14:31.547Z,14.17
2019-03-21T00:17:01.202Z,12.60
2019-03-21T00:19:30.739Z,11.00
2019-03-21T00:22:00.473Z,11.33
2019-03-21T00:24:29.970Z,9.23
2019-03-21T00:26:59.695Z,13.47
2019-03-21T00:29:29.006Z,18.47
2019-03-21T00:31:58.582Z,12.83
2019-03-21T00:34:28.161Z,12.23
2019-03-21T00:36:57.813Z,11.77
2019-03-21T00:39:32.799Z,9.27
2019-03-21T00:41:58.775Z,12.67
2019-03-21T00:44:28.067Z,10.43
2019-03-21T00:46:58.054Z,14.47
2019-03-21T00:49:27.449Z,14.33
2019-03-21T00:51:56.847Z,13.47
2019-03-21T00:54:26.201Z,15.53
2019-03-21T00:56:55.585Z,11.83
2019-03-21T00:59:25.346Z,13.77
2019-03-21T01:01:54.687Z,11.60
2019-03-21T01:04:27.265Z,15.27
2019-03-21T01:06:57.028Z,15.20
2019-03-21T01:09:26.364Z,12.27
2019-03-21T01:11:55.763Z,12.17
2019-03-21T01:14:29.771Z,16.10
2019-03-21T01:16:56.527Z,13.27
2019-03-21T01:19:25.869Z,17.60
2019-03-21T01:21:55.522Z,13.73
2019-03-21T01:24:24.904Z,14.30
2019-03-21T01:26:54.214Z,18.03
2019-03-21T01:29:23.497Z,18.50
2019-03-21T01:31:54.561Z,16.57
2019-03-21T01:34:24.150Z,15.50
2019-03-21T01:36:53.471Z,14.90
2019-03-21T01:39:22.759Z,17.00
2019-03-21T01:41:55.007Z,15.77
2019-03-21T01:44:24.543Z,14.87
2019-03-21T01:46:53.884Z,17.40
2019-03-21T01:49:23.188Z,17.10
2019-03-21T01:51:52.530Z,20.83
2019-03-21T01:54:21.904Z,15.93
2019-03-21T01:56:51.541Z,14.30
2019-03-21T01:59:20.846Z,16.00
2019-03-21T02:01:50.168Z,17.87
2019-03-21T02:04:19.563Z,19.47
2019-03-21T02:06:48.985Z,16.87
2019-03-21T02:09:18.277Z,17.77
2019-03-21T02:11:47.847Z,18.00
2019-03-21T02:14:17.143Z,20.67
2019-03-21T02:16:46.755Z,17.77
2019-03-21T02:19:16.051Z,20.70
2019-03-21T02:21:45.665Z,19.57
2019-03-21T02:24:14.968Z,18.17
2019-03-21T02:26:44.268Z,20.40
2019-03-21T02:29:13.634Z,19.80
2019-03-21T02:31:42.956Z,20.47
2019-03-21T02:34:12.259Z,18.00
2019-03-21T02:36:41.726Z,20.83
2019-03-21T02:39:11.357Z,21.73
2019-03-21T02:41:40.651Z,19.27
2019-03-21T02:44:09.942Z,21.77
2019-03-21T02:46:39.254Z,20.93
2019-03-21T02:49:08.597Z,25.27
2019-03-21T02:51:38.383Z,18.80
2019-03-21T02:54:08.196Z,21.30
2019-03-21T02:56:37.764Z,18.93
2019-03-21T02:59:07.380Z,20.80
2019-03-21T03:01:36.689Z,22.20
2019-03-21T03:04:05.983Z,22.23
2019-03-21T03:06:35.291Z,20.03
2019-03-21T03:09:07.546Z,20.20
2019-03-21T03:11:36.865Z,21.47
2019-03-21T03:14:06.291Z,19.87
2019-03-21T03:16:35.609Z,20.53
2019-03-21T03:19:05.107Z,21.63
2019-03-21T03:21:34.423Z,19.50
2019-03-21T03:24:03.921Z,18.80
2019-03-21T03:26:33.242Z,19.00
2019-03-21T03:29:02.833Z,21.83
2019-03-21T03:31:32.207Z,22.73
2019-03-21T03:34:01.523Z,20.27
2019-03-21T03:36:30.857Z,23.10
2019-03-21T03:39:00.247Z,23.83
2019-03-21T03:41:29.613Z,19.93
2019-03-21T03:43:59.214Z,22.33
2019-03-21T03:46:28.515Z,22.10
2019-03-21T03:48:58.176Z,17.17
2019-03-21T03:51:27.489Z,22.17
2019-03-21T03:53:57.222Z,18.23
2019-03-21T03:56:26.530Z,20.47
2019-03-21T03:58:56.657Z,19.40
2019-03-21T04:01:26.198Z,18.60
2019-03-21T04:03:55.728Z,17.97
2019-03-21T04:06:25.372Z,20.07
2019-03-21T04:08:54.784Z,21.67
2019-03-21T04:11:24.610Z,21.93
2019-03-21T04:13:54.197Z,18.23
2019-03-21T04:16:23.503Z,18.50
2019-03-21T04:18:53.510Z,18.33
2019-03-21T04:21:22.834Z,17.73
2019-03-21T04:23:52.516Z,21.50
2019-03-21T04:26:25.746Z,19.77
2019-03-21T04:28:55.152Z,19.77
2019-03-21T04:31:24.767Z,21.50
2019-03-21T04:33:55.689Z,21.10
2019-03-21T04:36:24.982Z,19.67
2019-03-21T04:38:54.394Z,20.47
2019-03-21T04:41:23.705Z,17.30
2019-03-21T04:43:53.372Z,23.33
2019-03-21T04:46:23.287Z,23.63
2019-03-21T04:48:52.590Z,20.23
2019-03-21T04:51:23.642Z,18.37
2019-03-21T04:53:53.751Z,24.70
2019-03-21T04:56:23.173Z,22.13
2019-03-21T04:58:52.806Z,21.57
2019-03-21T05:01:22.175Z,22.93
2019-03-21T05:03:52.032Z,18.67
2019-03-21T05:06:21.327Z,24.17
2019-03-21T05:08:50.667Z,21.90
2019-03-21T05:11:20.394Z,20.00
2019-03-21T05:13:50.058Z,22.40
2019-03-21T05:16:19.366Z,20.53
2019-03-21T05:18:49.254Z,21.53
2019-03-21T05:21:18.916Z,21.13
2019-03-21T05:23:48.251Z,23.03
2019-03-21T05:26:17.919Z,20.90
2019-03-21T05:28:47.491Z,22.50
2019-03-21T05:31:23.191Z,24.93
2019-03-21T05:33:52.804Z,21.87
2019-03-21T05:36:22.165Z,24.13
2019-03-21T05:38:51.562Z,24.90
2019-03-21T05:41:21.294Z,22.13
2019-03-21T05:43:53.908Z,24.57
2019-03-21T05:46:26.848Z,22.73
2019-03-21T05:48:54.830Z,26.00
2019-03-21T05:51:24.219Z,26.57
2019-03-21T05:53:53.889Z,23.67
2019-03-21T05:56:23.231Z,21.63
2019-03-21T05:58:52.648Z,25.57
2019-03-21T06:01:22.039Z,24.83
2019-03-21T06:03:52.135Z,25.83
2019-03-21T06:06:37.345Z,23.10
2019-03-21T06:09:08.644Z,22.17
2019-03-21T06:11:39.652Z,24.43
2019-03-21T06:14:09.207Z,23.87
2019-03-21T06:16:38.504Z,25.47
2019-03-21T06:19:31.531Z,24.70
2019-03-21T06:22:32.751Z,24.83
2019-03-21T06:25:49.487Z,22.33
2019-03-21T06:28:18.876Z,26.37
2019-03-21T06:30:48.255Z,25.37
2019-03-21T06:33:17.641Z,23.80
2019-03-21T06:35:46.992Z,25.70
2019-03-21T06:38:16.368Z,24.03
2019-03-21T06:40:45.967Z,24.93
2019-03-21T06:43:15.583Z,26.13
2019-03-21T06:45:48.151Z,25.47
2019-03-21T06:48:16.428Z,27.97
2019-03-21T06:50:45.877Z,23.93
2019-03-21T06:53:15.563Z,26.60
2019-03-21T06:55:45.766Z,26.20
2019-03-21T06:58:15.138Z,26.90
2019-03-21T07:00:44.462Z,26.20
2019-03-21T07:03:16.322Z,25.60
2019-03-21T07:05:45.167Z,25.50
2019-03-21T07:08:14.494Z,29.37
2019-03-21T07:10:43.959Z,30.53
2019-03-21T07:13:15.031Z,26.47
2019-03-21T07:15:44.363Z,29.57
2019-03-21T07:18:13.863Z,27.30
2019-03-21T07:20:43.563Z,29.13
2019-03-21T07:23:13.126Z,27.27
2019-03-21T07:25:42.468Z,28.07
2019-03-21T07:28:11.854Z,27.97
2019-03-21T07:30:41.187Z,31.57
2019-03-21T07:33:10.504Z,27.23
2019-03-21T07:35:40.193Z,28.87
2019-03-21T07:38:09.725Z,28.53
2019-03-21T07:40:39.132Z,30.13
2019-03-21T07:43:08.452Z,29.77
2019-03-21T07:45:37.772Z,30.77
2019-03-21T07:48:07.454Z,30.03
2019-03-21T07:50:37.092Z,32.27
2019-03-21T07:53:06.398Z,29.63
2019-03-21T07:55:35.711Z,30.00
2019-03-21T07:58:05.340Z,33.43
2019-03-21T08:00:35.133Z,34.53
2019-03-21T08:03:04.517Z,29.67
2019-03-21T08:05:40.394Z,32.67
2019-03-21T08:08:05.314Z,32.60
2019-03-21T08:10:35.096Z,33.70
2019-03-21T08:13:04.492Z,33.13
2019-03-21T08:15:34.209Z,29.87
2019-03-21T08:18:03.705Z,39.07
2019-03-21T08:20:33.119Z,31.77
2019-03-21T08:23:03.136Z,35.63
2019-03-21T08:25:32.466Z,31.33
2019-03-21T08:28:01.998Z,32.97
2019-03-21T08:30:39.459Z,31.07
2019-03-21T08:33:09.192Z,31.30
2019-03-21T08:35:38.831Z,31.23
2019-03-21T08:38:08.973Z,30.30
2019-03-21T08:40:38.301Z,30.10
2019-03-21T08:43:08.199Z,33.07
2019-03-21T08:45:37.596Z,31.83
2019-03-21T08:48:06.939Z,28.53
2019-03-21T08:50:36.268Z,33.07
2019-03-21T08:53:05.734Z,28.50
2019-03-21T08:55:35.110Z,28.30
2019-03-21T08:58:04.804Z,28.13
2019-03-21T09:00:34.677Z,30.00
2019-03-21T09:03:04.725Z,29.43
2019-03-21T09:05:34.395Z,30.70
2019-03-21T09:08:04.460Z,30.00
2019-03-21T09:10:34.449Z,30.60
2019-03-21T09:13:04.199Z,31.80
2019-03-21T09:15:33.813Z,27.57
2019-03-21T09:18:03.443Z,32.40
2019-03-21T09:20:33.099Z,29.33
2019-03-21T09:23:09.775Z,27.27
2019-03-21T09:25:39.098Z,27.97
2019-03-21T09:28:08.618Z,26.23
2019-03-21T09:30:38.014Z,28.23
2019-03-21T09:33:07.698Z,28.03
2019-03-21T09:35:37.316Z,27.77
2019-03-21T09:38:06.624Z,29.87
2019-03-21T09:40:35.945Z,26.30
2019-03-21T09:43:05.318Z,25.20
2019-03-21T09:45:34.907Z,25.47
2019-03-21T09:48:04.208Z,28.13
2019-03-21T09:50:33.522Z,24.53
2019-03-21T09:53:02.866Z,25.83
2019-03-21T09:55:32.248Z,25.37
2019-03-21T09:58:02.426Z,28.63
2019-03-21T10:00:33.979Z,27.90
2019-03-21T10:03:04.471Z,27.27
2019-03-21T10:05:34.035Z,27.80
2019-03-21T10:08:03.680Z,27.43
2019-03-21T10:10:33.457Z,30.00
2019-03-21T10:13:03.331Z,28.07
2019-03-21T10:15:33.518Z,32.70
2019-03-21T10:18:03.283Z,32.67
2019-03-21T10:20:33.613Z,32.97
2019-03-21T10:23:03.542Z,29.03
2019-03-21T10:25:32.963Z,31.67
2019-03-21T10:28:02.504Z,26.30
2019-03-21T10:30:36.971Z,29.23
2019-03-21T10:33:07.747Z,32.63
2019-03-21T10:35:37.543Z,30.87
2019-03-21T10:38:07.446Z,29.97
2019-03-21T10:40:37.034Z,32.63
2019-03-21T10:43:07.161Z,30.90
2019-03-21T10:45:37.176Z,29.10
2019-03-21T10:48:07.171Z,31.03
2019-03-21T10:50:38.200Z,28.63
2019-03-21T10:53:08.628Z,24.27
2019-03-21T10:55:38.521Z,28.83
2019-03-21T10:58:08.995Z,26.67
2019-03-21T11:00:39.284Z,27.90
2019-03-21T11:03:09.114Z,23.93
2019-03-21T11:05:38.532Z,26.70
2019-03-21T11:08:08.536Z,25.47
2019-03-21T11:10:37.869Z,22.50
2019-03-21T11:13:07.260Z,24.23
2019-03-21T11:15:36.732Z,29.23
2019-03-21T11:18:06.718Z,27.37
2019-03-21T11:20:37.693Z,25.53
2019-03-21T11:23:07.942Z,24.07
2019-03-21T11:25:37.503Z,25.63
2019-03-21T11:28:07.127Z,25.80
2019-03-21T11:30:38.459Z,28.33
2019-03-21T11:33:08.242Z,25.30
2019-03-21T11:35:37.626Z,22.50
2019-03-21T11:38:07.295Z,25.77
2019-03-21T11:40:37.109Z,30.00
2019-03-21T11:43:08.366Z,25.70
2019-03-21T11:45:38.210Z,22.17
2019-03-21T11:48:07.868Z,25.83
2019-03-21T11:50:37.563Z,27.83
2019-03-21T11:53:07.406Z,24.67
2019-03-21T11:55:37.320Z,25.50
2019-03-21T11:58:06.757Z,27.10
2019-03-21T12:00:43.995Z,27.40
2019-03-21T12:03:07.458Z,27.07
2019-03-21T12:05:37.124Z,29.93
2019-03-21T12:08:06.627Z,24.30
2019-03-21T12:10:35.944Z,24.63
2019-03-21T12:13:05.658Z,22.93
2019-03-21T12:15:35.408Z,23.30
2019-03-21T12:18:04.768Z,24.43
2019-03-21T12:20:35.111Z,24.00
2019-03-21T12:23:05.439Z,24.87
2019-03-21T12:25:34.760Z,27.57
2019-03-21T12:28:04.333Z,23.47
2019-03-21T12:30:43.273Z,28.03
2019-03-21T12:33:12.895Z,24.80
2019-03-21T12:35:42.289Z,28.10
2019-03-21T12:38:12.153Z,25.50
2019-03-21T12:40:41.489Z,23.00
2019-03-21T12:43:10.790Z,23.57
2019-03-21T12:45:40.126Z,22.50
2019-03-21T12:48:09.508Z,21.10
2019-03-21T12:50:38.986Z,20.97
2019-03-21T12:53:08.444Z,20.17
2019-03-21T12:55:38.087Z,21.03
2019-03-21T12:58:07.493Z,25.47
2019-03-21T13:00:43.963Z,23.60
2019-03-21T13:03:13.448Z,25.20
2019-03-21T13:05:42.928Z,28.80
2019-03-21T13:08:12.399Z,31.70
2019-03-21T13:10:41.781Z,33.17
2019-03-21T13:13:11.244Z,31.67
2019-03-21T13:15:40.619Z,33.70
2019-03-21T13:18:10.110Z,32.23
2019-03-21T13:20:39.639Z,32.10
2019-03-21T13:23:09.451Z,32.03
2019-03-21T13:25:38.895Z,31.87
2019-03-21T13:28:08.990Z,37.13
2019-03-21T13:30:38.422Z,38.60
2019-03-21T13:33:07.902Z,33.13
2019-03-21T13:35:37.634Z,34.77
2019-03-21T13:38:07.031Z,35.77
2019-03-21T13:40:37.133Z,34.67
2019-03-21T13:43:06.817Z,33.90
2019-03-21T13:45:36.557Z,35.57
2019-03-21T13:48:06.746Z,33.60
2019-03-21T13:50:36.679Z,33.47
2019-03-21T13:53:18.261Z,38.60
2019-03-21T13:55:38.149Z,34.27
2019-03-21T13:58:07.470Z,30.70
2019-03-21T14:00:37.770Z,33.43
2019-03-21T14:03:08.272Z,34.10
2019-03-21T14:05:37.689Z,34.60
2019-03-21T14:08:07.560Z,32.53
2019-03-21T14:10:37.038Z,33.40
2019-03-21T14:13:06.337Z,34.97
2019-03-21T14:15:35.655Z,35.13
2019-03-21T14:18:05.279Z,32.67
2019-03-21T14:20:35.006Z,35.80
2019-03-21T14:23:16.036Z,34.63
2019-03-21T14:25:36.105Z,34.57
2019-03-21T14:28:05.612Z,33.43
2019-03-21T14:30:35.288Z,35.27
2019-03-21T14:33:04.751Z,33.50
2019-03-21T14:35:34.403Z,35.57
2019-03-21T14:38:03.788Z,37.70
2019-03-21T14:40:33.152Z,34.77
2019-03-21T14:43:02.778Z,40.03
2019-03-21T14:45:32.096Z,33.57
2019-03-21T14:48:01.975Z,35.40
2019-03-21T14:50:31.956Z,37.37
2019-03-21T14:53:01.564Z,37.70
2019-03-21T14:55:31.214Z,39.90
2019-03-21T14:58:00.875Z,41.10
2019-03-21T15:00:30.288Z,40.33
2019-03-21T15:03:00.257Z,37.30
2019-03-21T15:05:29.887Z,37.53
2019-03-21T15:07:59.723Z,37.47
2019-03-21T15:10:29.151Z,36.37
2019-03-21T15:12:58.462Z,40.70
2019-03-21T15:15:27.807Z,40.33
2019-03-21T15:17:58.802Z,38.60
2019-03-21T15:20:28.627Z,39.20
2019-03-21T15:22:58.515Z,36.47
2019-03-21T15:25:27.960Z,39.50
2019-03-21T15:27:57.311Z,38.03
2019-03-21T15:30:26.631Z,39.47
2019-03-21T15:32:55.991Z,37.37
2019-03-21T15:35:25.721Z,43.67
2019-03-21T15:37:55.805Z,39.40
2019-03-21T15:40:25.285Z,39.87
2019-03-21T15:42:57.024Z,41.90
2019-03-21T15:45:26.931Z,42.93
2019-03-21T15:47:56.236Z,40.87
2019-03-21T15:50:33.797Z,41.23
2019-03-21T15:53:03.712Z,40.17
2019-03-21T15:55:33.305Z,42.30
2019-03-21T15:58:03.149Z,37.97
2019-03-21T16:00:35.023Z,36.80
2019-03-21T16:03:05.770Z,38.60
2019-03-21T16:05:35.787Z,39.33
2019-03-21T16:08:08.865Z,37.13
2019-03-21T16:10:38.641Z,37.00
2019-03-21T16:13:08.213Z,40.53
2019-03-21T16:15:37.928Z,36.10
2019-03-21T16:18:07.895Z,36.80
2019-03-21T16:20:37.263Z,37.87
2019-03-21T16:23:07.081Z,36.30
2019-03-21T16:25:36.407Z,42.40
2019-03-21T16:28:05.783Z,39.93
2019-03-21T16:30:35.722Z,39.53
2019-03-21T16:33:05.435Z,39.37
2019-03-21T16:35:35.153Z,39.90
2019-03-21T16:38:04.538Z,40.07
2019-03-21T16:40:33.954Z,41.27
2019-03-21T16:43:05.420Z,37.73
2019-03-21T16:45:34.686Z,38.70
2019-03-21T16:48:04.547Z,40.40
2019-03-21T16:50:34.227Z,37.63
2019-03-21T16:53:04.272Z,48.07
2019-03-21T16:55:35.020Z,40.23
2019-03-21T16:58:04.350Z,41.43
2019-03-21T17:00:33.758Z,39.20
2019-03-21T17:03:04.320Z,39.90
2019-03-21T17:05:33.640Z,42.37
2019-03-21T17:08:11.030Z,38.50
2019-03-21T17:10:35.003Z,41.17
2019-03-21T17:13:05.048Z,40.07
2019-03-21T17:15:35.668Z,40.63
2019-03-21T17:18:05.551Z,37.83
2019-03-21T17:20:35.528Z,38.60
2019-03-21T17:23:04.973Z,36.87
2019-03-21T17:25:34.718Z,40.90
2019-03-21T17:28:04.211Z,36.43
2019-03-21T17:30:33.878Z,42.67
2019-03-21T17:33:03.925Z,36.27
2019-03-21T17:35:33.581Z,39.97
2019-03-21T17:38:03.417Z,49.03
2019-03-21T17:40:32.905Z,39.43
2019-03-21T17:43:02.876Z,48.67
2019-03-21T17:45:32.181Z,42.43
2019-03-21T17:48:01.830Z,45.13
2019-03-21T17:50:31.190Z,39.47
2019-03-21T17:53:00.831Z,35.03
2019-03-21T17:55:30.854Z,40.40
2019-03-21T17:58:00.246Z,39.83
2019-03-21T18:00:30.659Z,34.27
2019-03-21T18:03:00.039Z,49.17
2019-03-21T18:05:29.435Z,54.70
2019-03-21T18:07:59.136Z,42.70
2019-03-21T18:10:32.424Z,41.60
2019-03-21T18:13:02.215Z,39.97
2019-03-21T18:15:32.223Z,40.13
2019-03-21T18:18:01.645Z,43.57
2019-03-21T18:20:31.014Z,39.63
2019-03-21T18:23:00.661Z,49.47
2019-03-21T18:25:29.982Z,44.80
2019-03-21T18:27:59.366Z,43.20
2019-03-21T18:30:28.743Z,44.00
2019-03-21T18:32:58.091Z,46.83
2019-03-21T18:35:27.668Z,45.27
2019-03-21T18:37:57.058Z,46.53
2019-03-21T18:40:27.000Z,52.07
2019-03-21T18:42:56.828Z,53.53
2019-03-21T18:45:26.207Z,51.93
2019-03-21T18:47:55.658Z,54.53
2019-03-21T18:50:24.983Z,63.57
2019-03-21T18:52:54.683Z,60.27
2019-03-21T18:55:24.235Z,52.30
2019-03-21T18:57:54.248Z,55.07
2019-03-21T19:00:24.549Z,47.73
2019-03-21T19:02:53.871Z,50.70
2019-03-21T19:05:23.248Z,52.27
2019-03-21T19:07:53.145Z,55.23
2019-03-21T19:10:22.775Z,56.20
2019-03-21T19:12:52.157Z,49.33
2019-03-21T19:15:21.465Z,55.33
2019-03-21T19:17:50.786Z,50.07
2019-03-21T19:20:20.250Z,57.60
2019-03-21T19:22:49.567Z,55.63
2019-03-21T19:25:19.842Z,55.73
2019-03-21T19:27:49.618Z,53.60
2019-03-21T19:30:19.122Z,53.47
2019-03-21T19:32:48.738Z,59.47
2019-03-21T19:35:18.589Z,57.33
2019-03-21T19:37:48.017Z,56.40
2019-03-21T19:40:17.740Z,56.53
2019-03-21T19:42:47.071Z,52.70
2019-03-21T19:45:17.131Z,56.67
2019-03-21T19:47:46.964Z,55.77
2019-03-21T19:50:16.897Z,55.10
2019-03-21T19:52:46.325Z,53.33
2019-03-21T19:55:15.962Z,55.97
2019-03-21T19:57:45.610Z,57.13
2019-03-21T20:00:17.223Z,57.20
2019-03-21T20:02:46.618Z,57.93
2019-03-21T20:05:16.072Z,56.83
2019-03-21T20:07:45.758Z,59.63
2019-03-21T20:10:15.816Z,72.87
2019-03-21T20:12:45.809Z,67.33
2019-03-21T20:15:15.924Z,67.90
2019-03-21T20:17:46.178Z,58.20
2019-03-21T20:20:16.201Z,57.03
2019-03-21T20:22:45.917Z,55.70
2019-03-21T20:25:16.617Z,57.30
2019-03-21T20:27:46.058Z,58.07
2019-03-21T20:30:17.076Z,60.60
2019-03-21T20:32:46.574Z,60.67
2019-03-21T20:35:16.384Z,60.33
2019-03-21T20:37:46.638Z,59.33
2019-03-21T20:40:16.708Z,57.70
2019-03-21T20:42:46.432Z,64.33
2019-03-21T20:45:16.268Z,64.20
2019-03-21T20:47:45.964Z,62.87
2019-03-21T20:50:17.278Z,65.47
2019-03-21T20:52:46.871Z,58.07
2019-03-21T20:55:16.770Z,66.60
2019-03-21T20:57:46.396Z,70.17
2019-03-21T21:00:17.870Z,61.97
2019-03-21T21:02:47.788Z,61.43
2019-03-21T21:05:17.315Z,60.90
2019-03-21T21:07:46.695Z,64.43
2019-03-21T21:10:16.296Z,66.00
2019-03-21T21:12:45.705Z,68.70
2019-03-21T21:15:15.997Z,65.03
2019-03-21T21:17:45.330Z,67.27
2019-03-21T21:20:15.544Z,65.87
2019-03-21T21:22:44.887Z,65.87
2019-03-21T21:25:15.422Z,67.67
2019-03-21T21:27:49.754Z,65.30
2019-03-21T21:30:17.118Z,69.37
2019-03-21T21:32:47.285Z,67.47
2019-03-21T21:35:17.081Z,65.43
2019-03-21T21:37:46.794Z,69.37
2019-03-21T21:40:16.827Z,68.40
2019-03-21T21:42:46.490Z,71.17
2019-03-21T21:45:16.471Z,66.93
2019-03-21T21:47:46.090Z,73.80
2019-03-21T21:50:15.635Z,74.50
2019-03-21T21:52:45.113Z,71.13
2019-03-21T21:55:14.793Z,72.27
2019-03-21T21:57:44.212Z,64.43
2019-03-21T22:00:15.497Z,61.30
2019-03-21T22:02:44.927Z,63.80
2019-03-21T22:05:14.627Z,70.27
2019-03-21T22:07:44.319Z,67.27
2019-03-21T22:10:14.406Z,63.33
2019-03-21T22:12:43.699Z,63.33
2019-03-21T22:15:13.309Z,65.03
2019-03-21T22:17:42.781Z,67.17
2019-03-21T22:20:12.774Z,70.50
2019-03-21T22:22:42.218Z,70.07
2019-03-21T22:25:12.833Z,75.23
2019-03-21T22:27:42.544Z,69.93
2019-03-21T22:30:13.555Z,74.60
2019-03-21T22:32:42.970Z,70.27
2019-03-21T22:35:12.627Z,69.17
2019-03-21T22:37:42.299Z,72.13
2019-03-21T22:40:11.922Z,67.03
2019-03-21T22:42:41.568Z,66.67
2019-03-21T22:45:11.532Z,69.67
2019-03-21T22:47:41.727Z,68.30
2019-03-21T22:50:14.744Z,66.67
2019-03-21T22:52:43.985Z,66.87
2019-03-21T22:55:13.906Z,70.33
2019-03-21T22:57:43.789Z,74.80
2019-03-21T23:00:15.985Z,80.30
2019-03-21T23:02:45.913Z,73.40
2019-03-21T23:05:16.235Z,78.17
2019-03-21T23:07:45.901Z,77.70
2019-03-21T23:10:15.867Z,77.47
2019-03-21T23:12:45.502Z,78.30
2019-03-21T23:15:15.154Z,79.00
2019-03-21T23:17:44.572Z,81.77
2019-03-21T23:20:14.536Z,84.37
2019-03-21T23:22:44.196Z,87.30
2019-03-21T23:25:16.625Z,90.23
2019-03-21T23:27:45.669Z,80.53
2019-03-21T23:30:16.205Z,75.93
2019-03-21T23:32:45.782Z,87.30
2019-03-21T23:35:15.984Z,80.17
2019-03-21T23:37:45.658Z,82.67
2019-03-21T23:40:15.874Z,78.93
2019-03-21T23:42:45.345Z,81.53
2019-03-21T23:45:15.212Z,83.50
2019-03-21T23:47:44.995Z,80.60
2019-03-21T23:50:14.907Z,79.27
2019-03-21T23:52:44.339Z,85.83
2019-03-21T23:55:15.324Z,81.73
2019-03-21T23:57:44.785Z,85.53
